EDT,Max TemperatureF,Mean TemperatureF,Min TemperatureF,Max Dew PointF,MeanDew PointF,Min DewpointF,Max Humidity, Mean Humidity, Min Humidity, Max Sea Level PressureIn, Mean Sea Level PressureIn, Min Sea Level PressureIn, Max VisibilityMiles, Mean VisibilityMiles, Min VisibilityMiles, Max Wind SpeedMPH, Mean Wind SpeedMPH, Max Gust SpeedMPH,PrecipitationIn, CloudCover, Events, WindDirDegrees
2012-10-1,64,52,41,50,46,41,100,74,49,29.99,29.93,29.88,12,12,12,7,4,,0.00,5,Fog,142
2012-10-2,69,61,53,55,52,48,94,79,53,29.93,29.88,29.82,12,12,10,10,6,,0.02,6,Rain,39
2012-10-3,69,64,59,61,58,54,100,86,64,30.09,30.00,29.90,12,7,2,14,4,17,0.02,8,Rain,210
2012-10-4,77,67,57,55,53,50,88,63,41,30.09,30.06,30.00,12,11,10,16,10,21,0.00,3,,219
2012-10-5,59,52,46,52,46,41,88,73,55,30.07,30.02,29.96,10,9,6,13,10,,0.25,7,Rain,257
2012-10-6,50,46,41,41,36,30,100,70,50,30.11,30.02,29.91,12,10,7,21,10,26,0.00,5,Fog,262
2012-10-7,50,44,39,39,35,30,87,69,47,30.14,30.11,30.07,12,10,10,10,5,,0.00,7,Rain,269
2012-10-8,53,48,44,34,31,30,66,49,41,30.23,30.20,30.16,10,10,10,15,10,,0.00,2,,213
2012-10-9,60,50,39,45,38,32,76,60,45,30.12,30.02,29.88,12,12,12,21,11,25,0.00,4,,191
2012-10-10,50,44,39,43,34,25,87,67,46,30.16,29.95,29.79,12,11,10,21,11,30,0.10,6,Rain,277
2012-10-11,60,46,33,41,32,28,81,54,31,30.20,30.12,30.02,12,11,10,28,12,33,0.00,3,,240
2012-10-12,50,44,37,36,32,28,81,63,50,30.45,30.40,30.26,12,11,10,16,8,,0.00,3,,40
2012-10-13,59,48,37,57,44,34,94,83,71,30.35,30.16,29.89,12,9,4,17,10,,0.52,7,Rain,165
2012-10-14,68,64,60,63,61,59,100,88,73,29.86,29.67,29.42,10,7,3,24,12,39,0.00,7,Rain,189
2012-10-15,51,50,46,45,42,39,82,73,67,29.93,29.78,29.61,12,10,10,21,15,28,0.09,8,,283
2012-10-16,55,47,39,46,38,34,87,67,51,30.01,29.91,29.80,12,12,12,14,7,,0.00,4,,202
2012-10-17,69,61,53,54,50,46,88,70,49,29.75,29.69,29.63,12,11,10,20,11,23,0.11,6,Rain,173
2012-10-18,59,54,48,52,46,34,94,70,39,29.70,29.54,29.43,12,11,8,26,18,37,0.09,5,Rain,185
2012-10-19,57,52,46,48,45,41,93,79,55,29.64,29.61,29.55,12,9,5,20,10,,0.22,8,Rain,178
2012-10-20,53,50,46,45,44,41,93,81,62,29.89,29.70,29.58,10,9,7,14,8,,0.02,7,Rain,256
2012-10-21,62,50,39,45,42,37,100,74,45,30.11,30.07,29.95,12,9,3,10,6,,0.00,1,Fog,224
2012-10-22,66,52,37,54,48,37,100,83,60,30.12,30.06,29.98,12,9,3,8,3,,0.00,4,Rain,154
2012-10-23,68,62,57,60,59,57,100,90,73,30.01,29.96,29.90,10,8,3,12,6,,0.10,8,,223
2012-10-24,73,66,59,61,59,55,100,85,64,30.05,30.02,29.99,10,8,3,10,5,,0.05,4,Fog-Rain,157
2012-10-25,75,64,53,57,54,52,100,71,50,30.01,29.95,29.88,10,10,10,18,10,26,0.00,2,,179
2012-10-26,60,53,44,54,42,36,87,76,62,30.26,30.14,29.92,10,10,10,17,13,26,0.14,8,Rain,338
2012-10-27,51,46,42,39,35,32,81,67,57,30.22,30.19,30.15,12,11,10,18,14,26,0.00,7,,356
2012-10-28,46,42,39,36,32,30,81,65,57,30.20,30.16,30.10,12,11,10,33,15,31,0.00,6,,3
2012-10-29,42,40,39,39,36,34,87,84,76,30.04,29.92,29.69,10,9,7,32,24,47,0.20,8,Rain,350
2012-10-30,44,42,39,41,40,36,100,92,87,29.47,29.44,29.40,10,6,3,33,27,46,0.14,8,Rain,339
2012-10-31,42,40,39,39,37,36,93,87,81,29.65,29.55,29.43,10,9,3,16,14,26,0.11,8,Rain,307